Time;durP1;ratioP1;P1;durP2;ratioP2;P2;SDS_P1;SDS_P2;PMS_P1;PMS_P2;Temp;Humidity;BMP_temperature;BMP_pressure;BME280_temperature;BME280_humidity;BME280_pressure;Samples;Min_cycle;Max_cycle;Signal;HPM_P1;HPM_P2
2023/07/23 00:02:25;;;;;;;2.47;2.37;;;;;;;;;;4969585;28;20479;-69
2023/07/23 00:04:51;;;;;;;1.80;1.70;;;;;;;;;;4970455;28;20422;-70
2023/07/23 00:07:17;;;;;;;1.63;1.63;;;;;;;;;;4970596;28;20945;-69
2023/07/23 00:09:43;;;;;;;1.93;1.93;;;;;;;;;;4969530;28;20942;-70
2023/07/23 00:12:09;;;;;;;1.90;1.83;;;;;;;;;;4970601;28;20562;-70
2023/07/23 00:14:35;;;;;;;1.80;1.70;;;;;;;;;;4970225;28;20806;-69
2023/07/23 00:17:01;;;;;;;2.50;2.40;;;;;;;;;;4970263;28;20433;-69
2023/07/23 00:19:27;;;;;;;2.40;2.30;;;;;;;;;;4969249;28;20590;-70
2023/07/23 00:21:53;;;;;;;1.87;1.87;;;;;;;;;;4970203;28;20438;-69
2023/07/23 00:24:19;;;;;;;2.83;1.63;;;;;;;;;;4969854;28;20441;-69
2023/07/23 00:26:45;;;;;;;1.83;1.73;;;;;;;;;;4967993;28;20450;-68
2023/07/23 00:29:11;;;;;;;2.20;2.20;;;;;;;;;;4968928;28;20456;-69
2023/07/23 00:31:38;;;;;;;2.00;1.90;;;;;;;;;;4970071;28;20485;-69
2023/07/23 00:34:07;;;;;;;1.93;1.73;;;;;;;;;;4969943;28;20442;-69
2023/07/23 00:36:33;;;;;;;1.63;1.63;;;;;;;;;;4969664;28;20973;-69
2023/07/23 00:38:59;;;;;;;2.27;2.07;;;;;;;;;;4968537;28;20505;-69
2023/07/23 00:41:25;;;;;;;2.40;2.23;;;;;;;;;;4969790;28;20446;-69
2023/07/23 00:43:51;;;;;;;2.30;2.10;;;;;;;;;;4969671;28;20462;-70
2023/07/23 00:46:17;;;;;;;2.20;2.20;;;;;;;;;;4969806;28;20458;-69
2023/07/23 00:48:42;;;;;;;1.40;1.40;;;;;;;;;;4969275;28;20438;-69
2023/07/23 00:51:08;;;;;;;2.20;2.10;;;;;;;;;;4968014;28;20818;-68
2023/07/23 00:53:34;;;;;;;2.40;2.40;;;;;;;;;;4969837;28;20817;-69
2023/07/23 00:56:00;;;;;;;1.43;1.43;;;;;;;;;;4970720;28;20476;-69
2023/07/23 00:58:26;;;;;;;1.30;1.30;;;;;;;;;;4969713;28;20449;-69
2023/07/23 01:00:52;;;;;;;2.00;2.00;;;;;;;;;;4966460;28;20446;-70
2023/07/23 01:03:18;;;;;;;1.93;1.93;;;;;;;;;;4968212;28;20437;-69
2023/07/23 01:05:46;;;;;;;1.80;1.80;;;;;;;;;;5000252;28;20971;-69
2023/07/23 01:08:12;;;;;;;1.97;1.87;;;;;;;;;;4970018;28;20438;-69
2023/07/23 01:10:39;;;;;;;4.10;2.83;;;;;;;;;;4969033;28;20430;-69
2023/07/23 01:13:06;;;;;;;8.43;2.47;;;;;;;;;;4971265;28;21009;-69
2023/07/23 01:15:33;;;;;;;1.63;1.63;;;;;;;;;;4968331;28;20965;-69
2023/07/23 01:17:59;;;;;;;3.83;2.33;;;;;;;;;;4968069;28;20441;-69
2023/07/23 01:20:25;;;;;;;1.47;1.47;;;;;;;;;;4967568;28;20453;-70
2023/07/23 01:22:51;;;;;;;2.00;1.97;;;;;;;;;;4967638;28;20545;-70
2023/07/23 01:25:17;;;;;;;1.67;1.67;;;;;;;;;;4970324;28;20438;-69
2023/07/23 01:27:43;;;;;;;2.13;2.10;;;;;;;;;;4968196;28;20460;-70
2023/07/23 01:30:12;;;;;;;2.30;2.20;;;;;;;;;;4968200;28;20510;-70
2023/07/23 01:32:39;;;;;;;1.90;1.90;;;;;;;;;;4968846;28;21017;-70
2023/07/23 01:35:16;;;;;;;1.90;1.73;;;;;;;;;;4968772;28;20806;-69
2023/07/23 01:37:43;;;;;;;1.80;1.80;;;;;;;;;;4969384;28;20441;-69
2023/07/23 01:40:09;;;;;;;2.60;2.30;;;;;;;;;;4969041;28;20464;-69
2023/07/23 01:42:35;;;;;;;3.17;1.70;;;;;;;;;;4969819;28;20434;-70
2023/07/23 01:45:04;;;;;;;1.93;1.93;;;;;;;;;;4969653;28;20431;-71
2023/07/23 01:47:31;;;;;;;2.30;2.07;;;;;;;;;;4967092;28;20437;-69
2023/07/23 01:49:57;;;;;;;1.80;1.80;;;;;;;;;;4969320;28;20468;-69
2023/07/23 01:52:23;;;;;;;1.70;1.70;;;;;;;;;;4967415;28;21276;-69
2023/07/23 01:54:49;;;;;;;2.47;2.27;;;;;;;;;;4968918;28;20430;-69
2023/07/23 01:57:15;;;;;;;2.60;2.50;;;;;;;;;;4967974;28;20453;-70
2023/07/23 01:59:41;;;;;;;5.17;2.30;;;;;;;;;;4967792;28;20434;-70
2023/07/23 02:02:09;;;;;;;1.90;1.80;;;;;;;;;;4966526;28;20934;-69
2023/07/23 02:04:35;;;;;;;2.63;2.40;;;;;;;;;;4968287;28;20437;-70
2023/07/23 02:07:01;;;;;;;1.60;1.60;;;;;;;;;;4968856;28;20818;-70
2023/07/23 02:09:27;;;;;;;6.33;2.37;;;;;;;;;;4967980;28;20438;-70
2023/07/23 02:11:53;;;;;;;2.07;2.07;;;;;;;;;;4968051;28;20504;-71
2023/07/23 02:14:19;;;;;;;4.20;2.80;;;;;;;;;;4966191;28;20459;-71
2023/07/23 02:16:45;;;;;;;1.87;1.87;;;;;;;;;;4966951;28;21000;-71
2023/07/23 02:19:14;;;;;;;2.30;2.20;;;;;;;;;;4969782;28;20442;-70
2023/07/23 02:21:40;;;;;;;1.77;1.73;;;;;;;;;;4966440;28;20481;-69
2023/07/23 02:24:06;;;;;;;2.20;2.10;;;;;;;;;;4968903;28;20773;-69
2023/07/23 02:26:32;;;;;;;2.40;2.30;;;;;;;;;;4968378;28;20454;-70
2023/07/23 02:28:58;;;;;;;8.07;2.53;;;;;;;;;;4997936;28;20434;-70
2023/07/23 02:31:24;;;;;;;2.00;2.00;;;;;;;;;;4968053;28;20501;-69
2023/07/23 02:33:50;;;;;;;4.03;2.07;;;;;;;;;;4969660;28;20430;-69
2023/07/23 02:36:16;;;;;;;1.83;1.83;;;;;;;;;;4967106;28;20469;-69
2023/07/23 02:38:43;;;;;;;2.13;2.00;;;;;;;;;;4968616;28;20430;-69
2023/07/23 02:41:09;;;;;;;2.20;1.87;;;;;;;;;;4968461;28;20425;-70
2023/07/23 02:43:35;;;;;;;2.67;1.73;;;;;;;;;;4967204;28;20845;-70
2023/07/23 02:46:01;;;;;;;1.80;1.80;;;;;;;;;;4966329;28;20434;-70
2023/07/23 02:48:27;;;;;;;1.83;1.73;;;;;;;;;;4968385;28;20456;-69
2023/07/23 02:50:52;;;;;;;1.90;1.90;;;;;;;;;;4965565;28;20494;-69
2023/07/23 02:53:20;;;;;;;1.70;1.60;;;;;;;;;;4969361;28;20439;-69
2023/07/23 02:55:46;;;;;;;1.70;1.70;;;;;;;;;;4967198;28;20521;-69
2023/07/23 02:58:12;;;;;;;2.13;2.07;;;;;;;;;;4966933;28;20534;-69
2023/07/23 03:00:41;;;;;;;2.23;1.70;;;;;;;;;;4967228;28;20885;-69
2023/07/23 03:03:07;;;;;;;1.90;1.90;;;;;;;;;;4968442;28;20495;-70
2023/07/23 03:05:36;;;;;;;2.10;2.00;;;;;;;;;;4966886;28;20933;-69
2023/07/23 03:08:03;;;;;;;5.60;1.70;;;;;;;;;;4968217;28;20513;-70
2023/07/23 03:10:29;;;;;;;1.90;1.90;;;;;;;;;;4965342;28;20438;-71
2023/07/23 03:12:55;;;;;;;1.97;1.97;;;;;;;;;;4966877;28;20449;-70
2023/07/23 03:15:22;;;;;;;2.27;2.17;;;;;;;;;;4971329;28;20906;-70
2023/07/23 03:17:48;;;;;;;10.77;1.97;;;;;;;;;;4970888;28;20468;-70
2023/07/23 03:20:15;;;;;;;1.70;1.60;;;;;;;;;;4972304;28;20430;-69
2023/07/23 03:22:41;;;;;;;1.20;1.20;;;;;;;;;;4968820;28;20957;-70
2023/07/23 03:25:07;;;;;;;4.50;2.03;;;;;;;;;;4970868;28;20444;-70
2023/07/23 03:27:33;;;;;;;1.60;1.60;;;;;;;;;;4971726;28;20952;-69
2023/07/23 03:29:59;;;;;;;2.00;2.00;;;;;;;;;;4971990;28;20481;-70
2023/07/23 03:32:25;;;;;;;3.57;1.67;;;;;;;;;;4971151;28;20524;-70
2023/07/23 03:34:51;;;;;;;2.00;2.00;;;;;;;;;;4970519;28;20484;-70
2023/07/23 03:37:17;;;;;;;4.60;2.17;;;;;;;;;;4971359;28;20460;-69
2023/07/23 03:39:43;;;;;;;1.50;1.50;;;;;;;;;;4969188;28;20480;-70
2023/07/23 03:42:09;;;;;;;1.70;1.70;;;;;;;;;;4968435;28;20909;-71
2023/07/23 03:44:35;;;;;;;1.70;1.70;;;;;;;;;;4970519;28;20434;-70
2023/07/23 03:47:10;;;;;;;1.90;1.80;;;;;;;;;;4970185;28;20442;-69
2023/07/23 03:49:36;;;;;;;1.60;1.60;;;;;;;;;;4970600;28;20472;-69
2023/07/23 03:52:02;;;;;;;1.70;1.70;;;;;;;;;;4971233;28;20494;-70
2023/07/23 03:54:28;;;;;;;1.90;1.80;;;;;;;;;;4968399;28;20457;-71
2023/07/23 03:56:54;;;;;;;1.80;1.80;;;;;;;;;;4966772;28;21156;-71
2023/07/23 03:59:20;;;;;;;1.73;1.43;;;;;;;;;;4970077;28;20452;-70
2023/07/23 04:01:46;;;;;;;1.40;1.40;;;;;;;;;;4970973;28;20441;-70
2023/07/23 04:04:12;;;;;;;1.80;1.80;;;;;;;;;;4970021;28;20434;-70
2023/07/23 04:06:38;;;;;;;1.60;1.60;;;;;;;;;;4970263;28;20789;-71
2023/07/23 04:09:04;;;;;;;2.00;2.00;;;;;;;;;;4968464;28;20437;-70
2023/07/23 04:11:30;;;;;;;1.80;1.80;;;;;;;;;;4969591;28;20473;-70
2023/07/23 04:13:56;;;;;;;1.80;1.70;;;;;;;;;;4970135;28;20450;-69
2023/07/23 04:16:22;;;;;;;1.53;1.53;;;;;;;;;;4970661;28;21002;-70
2023/07/23 04:18:49;;;;;;;1.57;1.47;;;;;;;;;;4969772;28;20441;-69
2023/07/23 04:21:18;;;;;;;1.60;1.57;;;;;;;;;;4970410;28;20468;-69
2023/07/23 04:23:47;;;;;;;6.77;1.80;;;;;;;;;;4967425;28;20963;-70
2023/07/23 04:26:13;;;;;;;2.20;2.20;;;;;;;;;;4969620;28;20453;-70
2023/07/23 04:28:39;;;;;;;1.83;1.73;;;;;;;;;;4969540;28;20464;-70
2023/07/23 04:31:05;;;;;;;1.70;1.70;;;;;;;;;;4970801;28;20478;-71
2023/07/23 04:33:31;;;;;;;2.07;1.87;;;;;;;;;;4970978;28;20784;-69
2023/07/23 04:35:57;;;;;;;1.53;1.53;;;;;;;;;;4969256;28;20453;-70
2023/07/23 04:38:22;;;;;;;1.73;1.63;;;;;;;;;;4971478;28;20513;-70
2023/07/23 04:40:49;;;;;;;1.80;1.80;;;;;;;;;;4969045;28;20442;-71
2023/07/23 04:43:15;;;;;;;2.20;2.10;;;;;;;;;;4968033;28;20587;-70
2023/07/23 04:45:41;;;;;;;3.07;2.03;;;;;;;;;;4968761;28;20921;-71
2023/07/23 04:48:07;;;;;;;2.10;2.00;;;;;;;;;;4968461;28;20434;-70
2023/07/23 04:50:33;;;;;;;1.70;1.70;;;;;;;;;;4968677;28;20489;-70
2023/07/23 04:52:59;;;;;;;1.97;1.87;;;;;;;;;;4968993;28;20500;-70
2023/07/23 04:55:25;;;;;;;2.17;2.17;;;;;;;;;;4968904;28;20491;-69
2023/07/23 04:57:51;;;;;;;1.63;1.63;;;;;;;;;;4969919;28;20442;-70
2023/07/23 05:00:17;;;;;;;1.73;1.73;;;;;;;;;;4968861;28;20961;-70
2023/07/23 05:02:43;;;;;;;1.43;1.43;;;;;;;;;;4968561;28;20453;-70
2023/07/23 05:05:09;;;;;;;2.93;1.90;;;;;;;;;;4967641;28;20442;-70
2023/07/23 05:07:35;;;;;;;3.03;1.83;;;;;;;;;;4967967;28;20606;-70
2023/07/23 05:10:02;;;;;;;1.83;1.80;;;;;;;;;;4968473;28;20941;-69
2023/07/23 05:12:28;;;;;;;1.50;1.40;;;;;;;;;;4968457;28;20488;-70
2023/07/23 05:15:08;;;;;;;1.67;1.50;;;;;;;;;;4969916;28;20752;-69
2023/07/23 05:17:34;;;;;;;2.13;2.03;;;;;;;;;;4968384;28;20523;-70
2023/07/23 05:20:00;;;;;;;1.80;1.80;;;;;;;;;;4967651;28;20450;-69
2023/07/23 05:22:26;;;;;;;3.20;1.33;;;;;;;;;;4969912;28;20453;-70
2023/07/23 05:24:52;;;;;;;5.70;1.70;;;;;;;;;;4969688;28;20517;-70
2023/07/23 05:27:18;;;;;;;1.47;1.47;;;;;;;;;;4968885;28;20949;-71
2023/07/23 05:29:44;;;;;;;1.37;1.37;;;;;;;;;;4966976;28;20809;-70
2023/07/23 05:32:10;;;;;;;2.13;1.40;;;;;;;;;;4968546;28;20568;-69
2023/07/23 05:34:37;;;;;;;1.90;1.90;;;;;;;;;;4967212;28;20924;-69
2023/07/23 05:37:03;;;;;;;1.77;1.77;;;;;;;;;;4966627;28;20507;-68
2023/07/23 05:39:29;;;;;;;2.07;1.90;;;;;;;;;;4969055;28;20529;-69
2023/07/23 05:41:55;;;;;;;2.17;2.07;;;;;;;;;;4966846;28;20879;-69
2023/07/23 05:44:21;;;;;;;1.83;1.73;;;;;;;;;;4969214;28;20430;-69
2023/07/23 05:46:47;;;;;;;1.93;1.93;;;;;;;;;;4968136;28;20427;-69
2023/07/23 05:49:13;;;;;;;1.70;1.70;;;;;;;;;;4969093;28;20923;-69
2023/07/23 05:51:39;;;;;;;3.17;2.00;;;;;;;;;;4965818;28;20522;-69
2023/07/23 05:54:05;;;;;;;2.10;2.03;;;;;;;;;;4966989;28;20435;-69
2023/07/23 05:56:31;;;;;;;1.40;1.40;;;;;;;;;;4969279;28;20433;-69
2023/07/23 05:58:57;;;;;;;1.40;1.40;;;;;;;;;;4967948;28;20886;-70
2023/07/23 06:01:23;;;;;;;2.67;2.63;;;;;;;;;;4995858;28;20442;-70
2023/07/23 06:03:49;;;;;;;1.63;1.63;;;;;;;;;;4969834;28;20948;-69
2023/07/23 06:06:15;;;;;;;1.40;1.40;;;;;;;;;;4969044;28;20486;-69
2023/07/23 06:08:41;;;;;;;1.50;1.50;;;;;;;;;;4964948;28;20450;-69
2023/07/23 06:11:07;;;;;;;1.83;1.83;;;;;;;;;;4966798;28;20798;-69
2023/07/23 06:13:33;;;;;;;2.10;2.00;;;;;;;;;;4967234;28;20516;-70
2023/07/23 06:15:59;;;;;;;1.80;1.80;;;;;;;;;;4967214;28;20460;-69
2023/07/23 06:18:25;;;;;;;2.20;2.00;;;;;;;;;;4966253;28;20451;-70
2023/07/23 06:20:51;;;;;;;1.60;1.60;;;;;;;;;;4966038;28;20441;-69
2023/07/23 06:23:17;;;;;;;2.93;1.70;;;;;;;;;;4968967;28;20441;-70
2023/07/23 06:25:43;;;;;;;4.83;1.37;;;;;;;;;;4968206;28;20943;-70
2023/07/23 06:28:09;;;;;;;1.40;1.40;;;;;;;;;;4968606;28;20449;-64
2023/07/23 06:30:35;;;;;;;1.70;1.70;;;;;;;;;;4969139;28;20491;-63
2023/07/23 06:33:01;;;;;;;1.97;1.87;;;;;;;;;;4968548;28;20819;-69
2023/07/23 06:35:27;;;;;;;2.10;2.00;;;;;;;;;;4969081;28;20445;-68
2023/07/23 06:37:53;;;;;;;1.50;1.50;;;;;;;;;;4969445;28;20472;-68
2023/07/23 06:40:19;;;;;;;2.40;1.80;;;;;;;;;;4967020;28;20452;-64
2023/07/23 06:42:45;;;;;;;1.47;1.47;;;;;;;;;;4969790;28;20525;-66
2023/07/23 06:45:11;;;;;;;1.43;1.43;;;;;;;;;;4960247;28;21019;-61
2023/07/23 06:47:38;;;;;;;2.30;1.70;;;;;;;;;;4960465;28;20450;-61
2023/07/23 06:50:04;;;;;;;2.17;2.00;;;;;;;;;;4960691;28;20463;-61
2023/07/23 06:52:30;;;;;;;1.60;1.50;;;;;;;;;;4960832;28;20493;-61
2023/07/23 06:54:56;;;;;;;1.50;1.40;;;;;;;;;;4954317;28;20457;-61
2023/07/23 06:57:25;;;;;;;1.80;1.80;;;;;;;;;;4967148;28;20465;-61
2023/07/23 06:59:51;;;;;;;1.70;1.70;;;;;;;;;;4960568;28;20809;-65
2023/07/23 07:02:17;;;;;;;1.73;1.63;;;;;;;;;;4967113;28;20455;-60
2023/07/23 07:04:43;;;;;;;4.53;1.80;;;;;;;;;;4967922;28;20519;-77
2023/07/23 07:07:09;;;;;;;2.07;1.90;;;;;;;;;;4966088;28;20438;-61
2023/07/23 07:09:34;;;;;;;1.90;1.90;;;;;;;;;;4967477;28;20826;-65
2023/07/23 07:12:00;;;;;;;1.60;1.57;;;;;;;;;;4968279;28;20482;-61
2023/07/23 07:14:26;;;;;;;7.40;1.30;;;;;;;;;;4966802;28;20451;-61
2023/07/23 07:16:52;;;;;;;1.93;1.70;;;;;;;;;;4967211;28;20477;-61
2023/07/23 07:19:18;;;;;;;1.37;1.30;;;;;;;;;;4965573;28;20438;-61
2023/07/23 07:21:44;;;;;;;1.67;1.67;;;;;;;;;;4967164;28;20988;-61
2023/07/23 07:24:10;;;;;;;1.60;1.60;;;;;;;;;;4968304;28;20496;-61
2023/07/23 07:26:36;;;;;;;2.90;2.10;;;;;;;;;;4968447;28;20944;-61
2023/07/23 07:29:02;;;;;;;6.30;1.43;;;;;;;;;;4967847;28;20832;-61
2023/07/23 07:31:29;;;;;;;1.40;1.20;;;;;;;;;;4967825;28;20564;-61
2023/07/23 07:33:55;;;;;;;2.60;1.97;;;;;;;;;;4968766;28;20798;-61
2023/07/23 07:36:21;;;;;;;1.70;1.70;;;;;;;;;;4966071;28;20975;-61
2023/07/23 07:38:47;;;;;;;1.30;1.30;;;;;;;;;;4965467;28;20781;-61
2023/07/23 07:41:12;;;;;;;2.30;1.80;;;;;;;;;;4968933;28;20438;-60
2023/07/23 07:43:38;;;;;;;1.70;1.70;;;;;;;;;;4968175;28;20465;-61
2023/07/23 07:46:06;;;;;;;1.77;1.67;;;;;;;;;;4968234;28;20449;-61
2023/07/23 07:48:32;;;;;;;2.10;1.40;;;;;;;;;;4968077;28;20467;-61
2023/07/23 07:50:59;;;;;;;1.43;1.33;;;;;;;;;;4967860;28;20538;-63
2023/07/23 07:53:25;;;;;;;1.03;1.03;;;;;;;;;;4967857;28;20442;-62
2023/07/23 07:55:51;;;;;;;1.37;1.27;;;;;;;;;;4968905;28;20429;-61
2023/07/23 07:58:24;;;;;;;2.00;1.53;;;;;;;;;;4969310;28;20517;-74
2023/07/23 08:00:50;;;;;;;4.07;1.50;;;;;;;;;;4971263;28;20430;-68
2023/07/23 08:03:16;;;;;;;1.43;1.33;;;;;;;;;;4970546;28;20979;-62
2023/07/23 08:05:42;;;;;;;1.90;1.80;;;;;;;;;;4968408;28;20444;-61
2023/07/23 08:08:10;;;;;;;1.77;1.77;;;;;;;;;;4969870;28;20587;-65
2023/07/23 08:10:36;;;;;;;3.00;2.00;;;;;;;;;;4970738;28;20434;-61
2023/07/23 08:13:03;;;;;;;1.53;1.40;;;;;;;;;;4970835;28;20562;-63
2023/07/23 08:15:32;;;;;;;1.40;1.20;;;;;;;;;;4971294;28;20491;-61
2023/07/23 08:17:59;;;;;;;1.50;1.50;;;;;;;;;;4971664;28;20450;-61
2023/07/23 08:20:27;;;;;;;1.40;1.33;;;;;;;;;;4972073;28;20425;-61
2023/07/23 08:22:53;;;;;;;1.20;1.20;;;;;;;;;;4969467;28;20480;-61
2023/07/23 08:25:19;;;;;;;7.13;1.40;;;;;;;;;;4971205;28;20421;-65
2023/07/23 08:27:47;;;;;;;3.00;1.53;;;;;;;;;;4971027;28;20499;-68
2023/07/23 08:30:13;;;;;;;2.03;1.50;;;;;;;;;;4969478;28;20437;-68
2023/07/23 08:33:08;;;;;;;1.77;1.43;;;;;;;;;;4973050;28;20510;-68
2023/07/23 08:35:35;;;;;;;4.40;1.83;;;;;;;;;;4970289;28;20438;-68
2023/07/23 08:38:01;;;;;;;1.40;1.40;;;;;;;;;;4970175;28;20425;-68
2023/07/23 08:40:27;;;;;;;2.40;1.33;;;;;;;;;;4969658;28;20939;-68
2023/07/23 08:42:56;;;;;;;1.73;1.53;;;;;;;;;;4969398;28;20431;-68
2023/07/23 08:45:35;;;;;;;1.43;1.43;;;;;;;;;;4969006;28;20787;-69
2023/07/23 08:48:03;;;;;;;1.13;1.13;;;;;;;;;;4969233;28;20437;-69
2023/07/23 08:50:29;;;;;;;1.90;1.80;;;;;;;;;;4968894;28;20550;-68
2023/07/23 08:52:56;;;;;;;2.67;1.27;;;;;;;;;;4970481;28;20516;-69
2023/07/23 08:55:22;;;;;;;1.70;1.60;;;;;;;;;;4970031;28;20433;-68
2023/07/23 08:57:49;;;;;;;1.20;1.20;;;;;;;;;;4970851;28;20968;-69
2023/07/23 09:00:15;;;;;;;1.30;1.30;;;;;;;;;;4969703;28;20438;-68
2023/07/23 09:02:42;;;;;;;2.40;1.40;;;;;;;;;;4969447;28;20434;-69
2023/07/23 09:05:08;;;;;;;1.47;1.40;;;;;;;;;;4969614;28;20525;-69
2023/07/23 09:07:35;;;;;;;3.13;1.67;;;;;;;;;;4969194;28;20466;-69
2023/07/23 09:10:01;;;;;;;1.37;1.37;;;;;;;;;;4969115;28;20422;-69
2023/07/23 09:12:29;;;;;;;1.83;1.60;;;;;;;;;;4969965;28;20865;-69
2023/07/23 09:14:55;;;;;;;3.70;1.83;;;;;;;;;;4969744;28;20429;-69
2023/07/23 09:17:21;;;;;;;1.43;1.43;;;;;;;;;;4969039;28;20430;-69
2023/07/23 09:19:47;;;;;;;1.87;1.60;;;;;;;;;;4968449;28;20922;-68
2023/07/23 09:22:13;;;;;;;1.47;1.37;;;;;;;;;;4970645;28;20445;-69
2023/07/23 09:24:39;;;;;;;2.40;2.10;;;;;;;;;;4970782;28;20430;-69
2023/07/23 09:27:10;;;;;;;3.60;1.77;;;;;;;;;;4969585;28;20483;-69
2023/07/23 09:29:36;;;;;;;1.10;1.10;;;;;;;;;;4968137;28;20426;-69
2023/07/23 09:32:02;;;;;;;1.50;1.47;;;;;;;;;;4967868;28;20482;-68
2023/07/23 09:34:28;;;;;;;2.50;1.80;;;;;;;;;;4970067;28;20806;-69
2023/07/23 09:36:55;;;;;;;2.00;1.50;;;;;;;;;;4969186;28;20731;-69
2023/07/23 09:39:25;;;;;;;1.40;1.40;;;;;;;;;;4968069;28;20538;-68
2023/07/23 09:41:51;;;;;;;2.27;1.47;;;;;;;;;;4969637;28;20438;-68
2023/07/23 09:44:17;;;;;;;2.50;1.60;;;;;;;;;;4969665;28;20515;-69
2023/07/23 09:46:46;;;;;;;1.40;1.40;;;;;;;;;;4969714;28;20438;-69
2023/07/23 09:49:13;;;;;;;1.87;1.77;;;;;;;;;;4969782;28;20960;-69
2023/07/23 09:51:39;;;;;;;1.67;1.67;;;;;;;;;;4968958;28;20497;-68
2023/07/23 09:54:05;;;;;;;2.10;2.00;;;;;;;;;;4969716;28;20434;-68
2023/07/23 09:56:34;;;;;;;1.53;1.53;;;;;;;;;;4968669;28;20437;-68
2023/07/23 09:59:00;;;;;;;2.00;1.90;;;;;;;;;;4968263;28;20438;-69
2023/07/23 10:01:26;;;;;;;1.37;1.37;;;;;;;;;;4970258;28;20918;-69
2023/07/23 10:03:54;;;;;;;4.20;1.90;;;;;;;;;;4975246;28;20528;-68
2023/07/23 10:06:22;;;;;;;1.90;1.83;;;;;;;;;;4969382;28;20951;-69
2023/07/23 10:08:49;;;;;;;3.67;2.20;;;;;;;;;;4968032;28;20793;-68
2023/07/23 10:11:16;;;;;;;3.13;1.60;;;;;;;;;;4968823;28;20473;-68
2023/07/23 10:13:43;;;;;;;1.77;1.77;;;;;;;;;;4968929;28;20442;-69
2023/07/23 10:16:12;;;;;;;1.17;1.17;;;;;;;;;;4968986;28;20422;-69
2023/07/23 10:18:40;;;;;;;1.40;1.40;;;;;;;;;;4965076;28;20465;-68
2023/07/23 10:21:10;;;;;;;1.43;1.40;;;;;;;;;;4968175;28;20457;-68
2023/07/23 10:23:37;;;;;;;5.23;1.90;;;;;;;;;;4969096;28;20934;-70
2023/07/23 10:26:24;;;;;;;2.13;2.13;;;;;;;;;;4968629;28;20444;-70
2023/07/23 10:28:51;;;;;;;2.33;1.53;;;;;;;;;;4966096;28;20969;-69
2023/07/23 10:31:21;;;;;;;1.47;1.37;;;;;;;;;;4968477;28;20938;-69
2023/07/23 10:33:49;;;;;;;1.57;1.57;;;;;;;;;;4967409;28;20469;-69
2023/07/23 10:36:15;;;;;;;4.60;1.70;;;;;;;;;;4967787;28;20445;-71
2023/07/23 10:38:41;;;;;;;1.90;1.80;;;;;;;;;;4966124;28;20852;-69
2023/07/23 10:41:07;;;;;;;5.23;1.50;;;;;;;;;;4965360;28;20499;-69
2023/07/23 10:43:37;;;;;;;1.40;1.40;;;;;;;;;;4966456;28;20491;-70
2023/07/23 10:46:04;;;;;;;1.47;1.37;;;;;;;;;;4967662;28;20488;-69
2023/07/23 10:48:39;;;;;;;1.47;1.47;;;;;;;;;;4967965;28;20444;-70
2023/07/23 10:51:09;;;;;;;1.80;1.60;;;;;;;;;;4965545;28;20491;-70
2023/07/23 10:53:38;;;;;;;1.70;1.60;;;;;;;;;;4966296;28;20450;-68
2023/07/23 10:56:20;;;;;;;1.60;1.60;;;;;;;;;;4968291;28;20536;-69
2023/07/23 10:58:46;;;;;;;1.80;1.80;;;;;;;;;;4967253;28;20865;-69
2023/07/23 11:01:13;;;;;;;1.77;1.67;;;;;;;;;;4968407;28;20449;-69
2023/07/23 11:03:43;;;;;;;1.67;1.57;;;;;;;;;;4967430;28;20928;-69
2023/07/23 11:06:24;;;;;;;2.27;2.00;;;;;;;;;;4967393;28;20530;-69
2023/07/23 11:08:51;;;;;;;1.23;1.20;;;;;;;;;;4967233;28;20496;-69
2023/07/23 11:11:17;;;;;;;1.60;1.60;;;;;;;;;;4963111;28;21046;-69
2023/07/23 11:13:43;;;;;;;1.97;1.97;;;;;;;;;;4964035;28;20496;-69
2023/07/23 11:16:09;;;;;;;2.60;1.83;;;;;;;;;;4966376;28;20961;-69
2023/07/23 11:18:35;;;;;;;2.30;1.70;;;;;;;;;;4965778;28;20524;-69
2023/07/23 11:21:05;;;;;;;2.93;1.70;;;;;;;;;;4968098;28;20460;-69
2023/07/23 11:23:32;;;;;;;1.67;1.57;;;;;;;;;;4968059;28;20914;-70
2023/07/23 11:25:58;;;;;;;1.33;1.33;;;;;;;;;;4967167;28;20458;-69
2023/07/23 11:28:24;;;;;;;2.40;1.00;;;;;;;;;;4966731;28;20434;-69
2023/07/23 11:30:54;;;;;;;1.27;1.27;;;;;;;;;;4966436;28;20438;-69
2023/07/23 11:33:22;;;;;;;1.77;1.77;;;;;;;;;;4964258;28;20450;-70
2023/07/23 11:35:49;;;;;;;2.30;1.53;;;;;;;;;;4967948;28;20457;-70
2023/07/23 11:38:15;;;;;;;1.50;1.50;;;;;;;;;;4971447;28;20973;-69
2023/07/23 11:40:42;;;;;;;1.40;1.40;;;;;;;;;;4969392;28;20448;-70
2023/07/23 11:43:09;;;;;;;2.33;1.83;;;;;;;;;;4968915;28;20580;-69
2023/07/23 11:45:44;;;;;;;1.87;1.77;;;;;;;;;;4975554;28;20442;-69
2023/07/23 11:48:16;;;;;;;1.43;1.43;;;;;;;;;;4968706;28;20819;-70
2023/07/23 11:50:43;;;;;;;1.83;1.73;;;;;;;;;;4968362;28;20449;-69
2023/07/23 11:53:09;;;;;;;4.00;1.20;;;;;;;;;;4971228;28;20489;-69
2023/07/23 11:55:35;;;;;;;1.30;1.30;;;;;;;;;;4968190;28;20502;-69
2023/07/23 11:58:01;;;;;;;1.87;1.73;;;;;;;;;;4971103;28;20525;-69
2023/07/23 12:00:28;;;;;;;1.87;1.80;;;;;;;;;;4970296;28;20453;-69
2023/07/23 12:02:54;;;;;;;2.10;1.47;;;;;;;;;;4966551;28;20948;-70
2023/07/23 12:05:20;;;;;;;1.30;1.30;;;;;;;;;;4966893;28;20480;-70
2023/07/23 12:07:47;;;;;;;2.33;1.77;;;;;;;;;;4968744;28;20445;-70
2023/07/23 12:10:14;;;;;;;1.27;1.27;;;;;;;;;;4966664;28;20504;-68
2023/07/23 12:12:40;;;;;;;1.60;1.60;;;;;;;;;;4970090;28;20521;-69
2023/07/23 12:15:06;;;;;;;1.13;1.13;;;;;;;;;;4970956;28;20461;-69
2023/07/23 12:17:34;;;;;;;3.30;1.90;;;;;;;;;;4969955;28;20438;-70
2023/07/23 12:20:02;;;;;;;1.83;1.83;;;;;;;;;;4969858;28;20438;-69
2023/07/23 12:22:30;;;;;;;1.63;1.63;;;;;;;;;;4968421;28;20468;-69
2023/07/23 12:24:56;;;;;;;1.67;1.67;;;;;;;;;;4981683;28;20450;-69
2023/07/23 12:27:22;;;;;;;2.10;2.10;;;;;;;;;;4969346;28;20430;-69
2023/07/23 12:29:48;;;;;;;1.90;1.90;;;;;;;;;;4969637;28;20794;-69
2023/07/23 12:32:15;;;;;;;1.30;1.30;;;;;;;;;;4968815;28;20482;-69
2023/07/23 12:34:42;;;;;;;1.60;1.47;;;;;;;;;;4968782;28;20531;-69
2023/07/23 12:37:08;;;;;;;6.13;2.17;;;;;;;;;;4968974;28;20793;-69
2023/07/23 12:39:34;;;;;;;1.90;1.90;;;;;;;;;;4968102;28;20477;-70
2023/07/23 12:42:00;;;;;;;1.60;1.57;;;;;;;;;;4972196;28;20458;-70
2023/07/23 12:44:26;;;;;;;1.80;1.70;;;;;;;;;;4969873;28;20430;-69
2023/07/23 12:46:53;;;;;;;1.63;1.63;;;;;;;;;;4967066;28;20445;-69
2023/07/23 12:49:19;;;;;;;1.97;1.87;;;;;;;;;;4972088;28;20433;-70
2023/07/23 12:51:45;;;;;;;2.40;2.40;;;;;;;;;;4976293;28;20507;-70
2023/07/23 12:54:11;;;;;;;2.20;2.10;;;;;;;;;;4972445;28;20450;-69
2023/07/23 12:56:36;;;;;;;2.83;2.73;;;;;;;;;;4972579;28;20465;-69
2023/07/23 12:59:03;;;;;;;1.40;1.40;;;;;;;;;;4966351;28;20274;-69
2023/07/23 13:01:29;;;;;;;1.80;1.80;;;;;;;;;;4968834;28;20446;-70
2023/07/23 13:03:54;;;;;;;2.83;1.90;;;;;;;;;;4968439;28;20453;-69
2023/07/23 13:06:20;;;;;;;1.70;1.60;;;;;;;;;;4968660;28;20575;-69
2023/07/23 13:08:46;;;;;;;2.70;2.50;;;;;;;;;;4968431;28;20450;-69
2023/07/23 13:11:12;;;;;;;2.47;2.37;;;;;;;;;;4968368;28;20470;-70
2023/07/23 13:13:38;;;;;;;2.10;2.00;;;;;;;;;;4966095;28;20481;-71
2023/07/23 13:16:05;;;;;;;2.00;2.00;;;;;;;;;;4968892;28;20430;-70
2023/07/23 13:18:31;;;;;;;3.13;2.93;;;;;;;;;;4969712;28;20489;-70
2023/07/23 13:20:58;;;;;;;2.10;2.00;;;;;;;;;;4966652;28;20488;-69
2023/07/23 13:23:24;;;;;;;2.43;2.33;;;;;;;;;;4968270;28;20538;-70
2023/07/23 13:25:52;;;;;;;3.00;2.80;;;;;;;;;;4967105;28;20560;-69
2023/07/23 13:28:18;;;;;;;2.10;2.10;;;;;;;;;;4968696;28;20430;-70
2023/07/23 13:30:44;;;;;;;2.67;2.57;;;;;;;;;;4969607;28;20517;-70
2023/07/23 13:33:10;;;;;;;2.27;2.27;;;;;;;;;;4969367;28;20485;-70
2023/07/23 13:35:36;;;;;;;2.30;2.30;;;;;;;;;;4968089;28;21295;-70
2023/07/23 13:38:01;;;;;;;2.90;2.80;;;;;;;;;;4965243;28;20457;-70
2023/07/23 13:40:28;;;;;;;6.40;3.63;;;;;;;;;;4968818;28;20958;-70
2023/07/23 13:42:54;;;;;;;2.93;2.73;;;;;;;;;;4969078;28;20948;-70
2023/07/23 13:45:20;;;;;;;3.10;2.80;;;;;;;;;;4965971;28;20422;-70
2023/07/23 13:47:46;;;;;;;4.23;4.13;;;;;;;;;;4967509;28;20422;-70
2023/07/23 13:50:12;;;;;;;7.27;3.13;;;;;;;;;;4973451;28;20451;-70
2023/07/23 13:52:38;;;;;;;3.10;3.00;;;;;;;;;;4966811;28;20501;-70
2023/07/23 13:55:04;;;;;;;4.07;3.87;;;;;;;;;;4967740;28;20472;-70
2023/07/23 13:57:31;;;;;;;3.10;2.80;;;;;;;;;;4967410;28;20465;-69
2023/07/23 13:59:57;;;;;;;3.20;3.00;;;;;;;;;;4964193;28;20442;-71
2023/07/23 14:02:23;;;;;;;3.47;3.30;;;;;;;;;;4966280;28;20537;-70
2023/07/23 14:04:49;;;;;;;3.53;3.30;;;;;;;;;;4967700;28;20906;-71
2023/07/23 14:07:16;;;;;;;7.70;3.43;;;;;;;;;;4965710;28;20450;-71
2023/07/23 14:09:42;;;;;;;4.10;3.80;;;;;;;;;;4968469;28;20434;-71
2023/07/23 14:12:08;;;;;;;3.50;3.30;;;;;;;;;;4969318;28;20587;-71
2023/07/23 14:14:34;;;;;;;3.90;3.80;;;;;;;;;;4963480;28;20469;-70
2023/07/23 14:17:00;;;;;;;6.47;4.20;;;;;;;;;;4967681;28;20470;-70
2023/07/23 14:19:26;;;;;;;4.60;3.37;;;;;;;;;;4966350;28;20453;-70
2023/07/23 14:21:52;;;;;;;7.23;4.30;;;;;;;;;;4966972;28;20456;-70
2023/07/23 14:24:20;;;;;;;3.87;3.77;;;;;;;;;;4967748;28;20509;-70
2023/07/23 14:26:46;;;;;;;6.70;5.37;;;;;;;;;;4968657;28;20425;-70
2023/07/23 14:29:12;;;;;;;4.67;4.40;;;;;;;;;;4966987;28;20801;-70
2023/07/23 14:31:39;;;;;;;4.57;4.17;;;;;;;;;;4968260;28;20467;-70
2023/07/23 14:34:05;;;;;;;5.63;5.00;;;;;;;;;;4968734;28;20485;-70
2023/07/23 14:36:31;;;;;;;4.47;4.20;;;;;;;;;;4966538;28;20938;-70
2023/07/23 14:38:58;;;;;;;4.43;4.13;;;;;;;;;;4967890;28;20440;-70
2023/07/23 14:41:24;;;;;;;4.40;4.17;;;;;;;;;;4964944;28;20527;-70